sensor_id;sensor_type;location;lat;lon;timestamp;pressure;altitude;pressure_sealevel;temperature;humidity
31595;BME280;18200;48.726;8.892;2023-03-18T00:01:27;96297.22;;;24.14;30.55
31595;BME280;18200;48.726;8.892;2023-03-18T00:05:27;96298.91;;;24.12;29.65
31595;BME280;18200;48.726;8.892;2023-03-18T00:09:28;96303.34;;;24.27;29.77
31595;BME280;18200;48.726;8.892;2023-03-18T00:13:28;96307.59;;;24.28;28.94
31595;BME280;18200;48.726;8.892;2023-03-18T00:17:29;96313.59;;;23.87;29.66
31595;BME280;18200;48.726;8.892;2023-03-18T00:21:30;96318.44;;;23.83;29.93
31595;BME280;18200;48.726;8.892;2023-03-18T00:25:31;96339.94;;;24.24;29.54
31595;BME280;18200;48.726;8.892;2023-03-18T00:29:32;96332.34;;;23.88;29.71
31595;BME280;18200;48.726;8.892;2023-03-18T00:33:32;96343.13;;;24.14;29.01
31595;BME280;18200;48.726;8.892;2023-03-18T00:37:33;96348.00;;;24.10;29.81
31595;BME280;18200;48.726;8.892;2023-03-18T00:41:35;96340.75;;;23.94;29.20
31595;BME280;18200;48.726;8.892;2023-03-18T00:45:38;96354.22;;;23.70;30.01
31595;BME280;18200;48.726;8.892;2023-03-18T00:49:39;96344.97;;;23.25;30.25
31595;BME280;18200;48.726;8.892;2023-03-18T00:53:40;96355.59;;;23.66;29.94
31595;BME280;18200;48.726;8.892;2023-03-18T00:57:41;96356.06;;;22.31;31.53
31595;BME280;18200;48.726;8.892;2023-03-18T01:01:42;96349.53;;;23.28;29.10
31595;BME280;18200;48.726;8.892;2023-03-18T01:05:43;96362.19;;;22.82;30.85
31595;BME280;18200;48.726;8.892;2023-03-18T01:09:44;96358.94;;;23.17;29.73
31595;BME280;18200;48.726;8.892;2023-03-18T01:13:45;96351.22;;;23.47;26.63
31595;BME280;18200;48.726;8.892;2023-03-18T01:17:45;96342.63;;;23.66;26.69
31595;BME280;18200;48.726;8.892;2023-03-18T01:21:45;96348.50;;;23.56;27.25
31595;BME280;18200;48.726;8.892;2023-03-18T01:25:46;96349.56;;;22.84;29.73
31595;BME280;18200;48.726;8.892;2023-03-18T01:29:51;96349.22;;;23.78;27.59
31595;BME280;18200;48.726;8.892;2023-03-18T01:33:55;96344.38;;;23.82;26.23
31595;BME280;18200;48.726;8.892;2023-03-18T01:37:55;96348.75;;;24.19;25.05
31595;BME280;18200;48.726;8.892;2023-03-18T01:41:57;96346.78;;;24.20;24.84
31595;BME280;18200;48.726;8.892;2023-03-18T01:46:28;96340.28;;;24.35;25.27
31595;BME280;18200;48.726;8.892;2023-03-18T01:50:33;96338.44;;;24.41;24.64
31595;BME280;18200;48.726;8.892;2023-03-18T01:54:55;96333.91;;;24.84;23.56
31595;BME280;18200;48.726;8.892;2023-03-18T01:58:58;96340.91;;;24.57;27.17
31595;BME280;18200;48.726;8.892;2023-03-18T02:02:59;96335.03;;;24.10;25.69
31595;BME280;18200;48.726;8.892;2023-03-18T02:07:00;96338.31;;;24.72;24.89
31595;BME280;18200;48.726;8.892;2023-03-18T02:11:01;96340.91;;;24.66;26.42
31595;BME280;18200;48.726;8.892;2023-03-18T02:15:06;96344.63;;;23.75;27.67
31595;BME280;18200;48.726;8.892;2023-03-18T02:24:00;96345.25;;;24.10;26.69
31595;BME280;18200;48.726;8.892;2023-03-18T02:28:06;96336.25;;;23.69;27.08
31595;BME280;18200;48.726;8.892;2023-03-18T02:32:09;96339.22;;;23.93;27.17
31595;BME280;18200;48.726;8.892;2023-03-18T02:36:16;96338.59;;;23.89;26.52
31595;BME280;18200;48.726;8.892;2023-03-18T02:40:47;96334.81;;;24.44;25.75
31595;BME280;18200;48.726;8.892;2023-03-18T02:44:52;96346.66;;;24.23;27.04
31595;BME280;18200;48.726;8.892;2023-03-18T02:49:20;96341.97;;;23.93;27.07
31595;BME280;18200;48.726;8.892;2023-03-18T02:53:20;96336.56;;;23.71;26.55
31595;BME280;18200;48.726;8.892;2023-03-18T02:57:21;96336.91;;;23.91;26.97
31595;BME280;18200;48.726;8.892;2023-03-18T03:01:21;96363.22;;;23.19;28.41
31595;BME280;18200;48.726;8.892;2023-03-18T03:05:22;96360.53;;;22.84;28.57
31595;BME280;18200;48.726;8.892;2023-03-18T03:09:23;96356.03;;;23.34;26.99
31595;BME280;18200;48.726;8.892;2023-03-18T03:13:23;96355.22;;;23.55;26.98
31595;BME280;18200;48.726;8.892;2023-03-18T03:17:26;96355.91;;;23.77;27.20
31595;BME280;18200;48.726;8.892;2023-03-18T03:21:27;96353.47;;;23.70;27.44
31595;BME280;18200;48.726;8.892;2023-03-18T03:25:28;96356.75;;;23.56;27.59
31595;BME280;18200;48.726;8.892;2023-03-18T03:29:29;96361.44;;;23.46;27.82
31595;BME280;18200;48.726;8.892;2023-03-18T03:33:30;96374.00;;;23.35;27.93
31595;BME280;18200;48.726;8.892;2023-03-18T03:37:30;96371.91;;;22.49;28.98
31595;BME280;18200;48.726;8.892;2023-03-18T03:41:30;96359.78;;;23.05;28.31
31595;BME280;18200;48.726;8.892;2023-03-18T03:45:31;96357.41;;;23.17;27.68
31595;BME280;18200;48.726;8.892;2023-03-18T03:49:33;96362.94;;;23.26;27.66
31595;BME280;18200;48.726;8.892;2023-03-18T03:53:34;96364.41;;;23.17;27.76
31595;BME280;18200;48.726;8.892;2023-03-18T03:57:35;96371.88;;;23.17;27.51
31595;BME280;18200;48.726;8.892;2023-03-18T04:01:36;96373.50;;;22.71;27.88
31595;BME280;18200;48.726;8.892;2023-03-18T04:05:36;96378.50;;;23.07;27.80
31595;BME280;18200;48.726;8.892;2023-03-18T04:09:38;96380.28;;;23.01;27.61
31595;BME280;18200;48.726;8.892;2023-03-18T04:13:40;96375.44;;;22.83;28.51
31595;BME280;18200;48.726;8.892;2023-03-18T04:17:41;96367.41;;;21.95;29.35
31595;BME280;18200;48.726;8.892;2023-03-18T04:21:41;96376.91;;;21.91;29.23
31595;BME280;18200;48.726;8.892;2023-03-18T04:25:42;96375.44;;;21.36;30.06
31595;BME280;18200;48.726;8.892;2023-03-18T04:29:43;96378.53;;;21.76;29.91
31595;BME280;18200;48.726;8.892;2023-03-18T04:33:45;96378.34;;;21.95;28.69
31595;BME280;18200;48.726;8.892;2023-03-18T04:37:45;96376.34;;;21.96;29.53
31595;BME280;18200;48.726;8.892;2023-03-18T04:41:46;96374.06;;;22.07;29.14
31595;BME280;18200;48.726;8.892;2023-03-18T04:45:49;96371.88;;;22.02;29.55
31595;BME280;18200;48.726;8.892;2023-03-18T04:49:50;96385.97;;;21.21;30.47
31595;BME280;18200;48.726;8.892;2023-03-18T04:53:51;96384.09;;;21.06;30.47
31595;BME280;18200;48.726;8.892;2023-03-18T04:57:51;96384.63;;;20.84;30.88
31595;BME280;18200;48.726;8.892;2023-03-18T05:01:55;96382.38;;;20.67;31.52
31595;BME280;18200;48.726;8.892;2023-03-18T05:05:56;96381.78;;;20.59;31.19
31595;BME280;18200;48.726;8.892;2023-03-18T05:10:06;96389.72;;;21.27;30.36
31595;BME280;18200;48.726;8.892;2023-03-18T05:14:06;96388.59;;;20.96;30.33
31595;BME280;18200;48.726;8.892;2023-03-18T05:18:14;96390.81;;;21.42;29.85
31595;BME280;18200;48.726;8.892;2023-03-18T05:22:18;96394.41;;;21.27;30.51
31595;BME280;18200;48.726;8.892;2023-03-18T05:26:22;96394.31;;;20.73;31.54
31595;BME280;18200;48.726;8.892;2023-03-18T05:30:23;96394.41;;;20.98;30.46
31595;BME280;18200;48.726;8.892;2023-03-18T05:34:26;96398.25;;;20.72;31.23
31595;BME280;18200;48.726;8.892;2023-03-18T05:38:28;96393.25;;;20.83;30.61
31595;BME280;18200;48.726;8.892;2023-03-18T05:42:29;96411.56;;;20.54;31.51
31595;BME280;18200;48.726;8.892;2023-03-18T05:46:30;96407.28;;;20.69;30.74
31595;BME280;18200;48.726;8.892;2023-03-18T05:50:44;96407.78;;;20.64;31.11
31595;BME280;18200;48.726;8.892;2023-03-18T05:54:50;96398.59;;;20.58;30.79
31595;BME280;18200;48.726;8.892;2023-03-18T06:03:32;96400.25;;;20.84;31.07
31595;BME280;18200;48.726;8.892;2023-03-18T06:07:33;96411.94;;;19.88;31.65
31595;BME280;18200;48.726;8.892;2023-03-18T06:11:34;96406.72;;;19.42;33.07
31595;BME280;18200;48.726;8.892;2023-03-18T06:15:35;96401.63;;;19.79;32.49
31595;BME280;18200;48.726;8.892;2023-03-18T06:19:35;96407.78;;;20.16;32.05
31595;BME280;18200;48.726;8.892;2023-03-18T06:23:36;96412.25;;;20.58;31.37
31595;BME280;18200;48.726;8.892;2023-03-18T06:27:37;96408.53;;;20.36;31.63
31595;BME280;18200;48.726;8.892;2023-03-18T06:31:38;96412.28;;;20.06;31.96
31595;BME280;18200;48.726;8.892;2023-03-18T06:35:41;96415.97;;;19.99;32.08
31595;BME280;18200;48.726;8.892;2023-03-18T06:39:42;96411.38;;;20.45;31.27
31595;BME280;18200;48.726;8.892;2023-03-18T06:43:43;96421.78;;;20.66;31.24
31595;BME280;18200;48.726;8.892;2023-03-18T06:47:47;96421.22;;;21.03;30.70
31595;BME280;18200;48.726;8.892;2023-03-18T06:51:49;96417.63;;;21.06;30.18
31595;BME280;18200;48.726;8.892;2023-03-18T06:55:51;96417.19;;;20.63;31.57
31595;BME280;18200;48.726;8.892;2023-03-18T06:59:56;96420.75;;;20.76;31.05
31595;BME280;18200;48.726;8.892;2023-03-18T07:03:58;96412.34;;;21.28;31.03
31595;BME280;18200;48.726;8.892;2023-03-18T07:08:01;96405.03;;;21.37;30.76
31595;BME280;18200;48.726;8.892;2023-03-18T07:12:12;96413.94;;;21.54;30.25
31595;BME280;18200;48.726;8.892;2023-03-18T07:16:25;96422.59;;;21.24;30.15
31595;BME280;18200;48.726;8.892;2023-03-18T07:20:26;96428.22;;;20.88;31.08
31595;BME280;18200;48.726;8.892;2023-03-18T07:24:28;96425.31;;;21.52;31.06
31595;BME280;18200;48.726;8.892;2023-03-18T07:28:29;96424.19;;;22.04;31.03
31595;BME280;18200;48.726;8.892;2023-03-18T07:32:34;96425.50;;;21.87;31.11
31595;BME280;18200;48.726;8.892;2023-03-18T07:36:37;96437.75;;;22.07;30.13
31595;BME280;18200;48.726;8.892;2023-03-18T07:40:38;96443.19;;;22.45;29.95
31595;BME280;18200;48.726;8.892;2023-03-18T07:44:39;96432.22;;;22.70;29.29
31595;BME280;18200;48.726;8.892;2023-03-18T07:48:39;96435.75;;;23.27;27.29
31595;BME280;18200;48.726;8.892;2023-03-18T07:52:39;96429.19;;;23.98;26.44
31595;BME280;18200;48.726;8.892;2023-03-18T07:56:41;96433.47;;;24.30;25.63
31595;BME280;18200;48.726;8.892;2023-03-18T08:00:41;96436.84;;;24.83;24.83
31595;BME280;18200;48.726;8.892;2023-03-18T08:04:42;96435.16;;;25.03;24.54
31595;BME280;18200;48.726;8.892;2023-03-18T08:08:43;96432.25;;;25.16;24.46
31595;BME280;18200;48.726;8.892;2023-03-18T08:12:43;96436.53;;;25.08;23.42
31595;BME280;18200;48.726;8.892;2023-03-18T08:16:44;96428.53;;;25.73;22.58
31595;BME280;18200;48.726;8.892;2023-03-18T08:20:45;96440.28;;;26.34;22.08
31595;BME280;18200;48.726;8.892;2023-03-18T08:24:45;96441.47;;;24.06;23.47
31595;BME280;18200;48.726;8.892;2023-03-18T08:28:45;96435.75;;;25.62;22.13
31595;BME280;18200;48.726;8.892;2023-03-18T08:32:46;96441.97;;;26.31;21.31
31595;BME280;18200;48.726;8.892;2023-03-18T08:36:47;96431.13;;;26.84;21.41
31595;BME280;18200;48.726;8.892;2023-03-18T08:40:48;96430.47;;;27.80;20.93
31595;BME280;18200;48.726;8.892;2023-03-18T08:44:48;96430.66;;;27.47;20.11
31595;BME280;18200;48.726;8.892;2023-03-18T08:48:50;96439.63;;;27.86;19.88
31595;BME280;18200;48.726;8.892;2023-03-18T08:52:50;96426.06;;;28.32;20.05
31595;BME280;18200;48.726;8.892;2023-03-18T08:56:51;96427.34;;;28.51;19.38
31595;BME280;18200;48.726;8.892;2023-03-18T09:00:54;96436.13;;;29.04;19.67
31595;BME280;18200;48.726;8.892;2023-03-18T09:04:54;96426.56;;;29.05;19.58
31595;BME280;18200;48.726;8.892;2023-03-18T09:08:55;96425.63;;;29.08;19.66
31595;BME280;18200;48.726;8.892;2023-03-18T09:12:56;96429.63;;;28.03;20.11
31595;BME280;18200;48.726;8.892;2023-03-18T09:16:56;96416.63;;;28.93;18.74
31595;BME280;18200;48.726;8.892;2023-03-18T09:20:57;96417.44;;;28.99;18.47
31595;BME280;18200;48.726;8.892;2023-03-18T09:24:58;96415.38;;;29.86;18.34
31595;BME280;18200;48.726;8.892;2023-03-18T09:28:58;96416.72;;;29.96;17.59
31595;BME280;18200;48.726;8.892;2023-03-18T09:32:59;96414.28;;;29.78;18.34
31595;BME280;18200;48.726;8.892;2023-03-18T09:36:59;96413.13;;;30.52;18.02
31595;BME280;18200;48.726;8.892;2023-03-18T09:41:17;96415.19;;;29.44;18.67
31595;BME280;18200;48.726;8.892;2023-03-18T09:50:25;96408.28;;;31.65;16.76
31595;BME280;18200;48.726;8.892;2023-03-18T09:54:33;96404.25;;;30.48;17.89
31595;BME280;18200;48.726;8.892;2023-03-18T09:59:01;96400.81;;;29.91;19.01
31595;BME280;18200;48.726;8.892;2023-03-18T10:03:25;96400.88;;;31.34;17.52
31595;BME280;18200;48.726;8.892;2023-03-18T10:07:31;96394.38;;;31.43;17.01
31595;BME280;18200;48.726;8.892;2023-03-18T10:11:42;96402.22;;;31.61;16.76
31595;BME280;18200;48.726;8.892;2023-03-18T10:15:48;96399.22;;;32.14;16.09
31595;BME280;18200;48.726;8.892;2023-03-18T10:19:53;96403.72;;;32.40;16.80
31595;BME280;18200;48.726;8.892;2023-03-18T10:32:51;96402.25;;;30.18;19.38
31595;BME280;18200;48.726;8.892;2023-03-18T10:37:13;96401.44;;;30.06;19.04
31595;BME280;18200;48.726;8.892;2023-03-18T10:41:24;96402.44;;;31.47;17.35
31595;BME280;18200;48.726;8.892;2023-03-18T10:45:30;96405.63;;;31.23;17.72
31595;BME280;18200;48.726;8.892;2023-03-18T10:49:43;96400.22;;;32.17;16.65
31595;BME280;18200;48.726;8.892;2023-03-18T10:57:58;96392.00;;;28.95;19.07
31595;BME280;18200;48.726;8.892;2023-03-18T11:02:04;96387.59;;;31.77;17.42
31595;BME280;18200;48.726;8.892;2023-03-18T11:06:21;96370.53;;;33.32;15.47
31595;BME280;18200;48.726;8.892;2023-03-18T11:10:27;96373.72;;;31.94;17.14
31595;BME280;18200;48.726;8.892;2023-03-18T11:14:31;96373.84;;;31.35;15.86
31595;BME280;18200;48.726;8.892;2023-03-18T11:18:31;96364.06;;;32.11;16.36
31595;BME280;18200;48.726;8.892;2023-03-18T11:22:35;96368.28;;;32.68;15.48
31595;BME280;18200;48.726;8.892;2023-03-18T11:26:45;96367.78;;;32.64;15.60
31595;BME280;18200;48.726;8.892;2023-03-18T11:30:48;96364.22;;;30.60;17.14
31595;BME280;18200;48.726;8.892;2023-03-18T11:34:55;96356.84;;;32.88;15.41
31595;BME280;18200;48.726;8.892;2023-03-18T11:39:05;96363.03;;;32.31;15.22
31595;BME280;18200;48.726;8.892;2023-03-18T11:43:19;96352.53;;;33.39;14.69
31595;BME280;18200;48.726;8.892;2023-03-18T11:47:24;96354.34;;;32.79;14.82
31595;BME280;18200;48.726;8.892;2023-03-18T11:51:42;96355.06;;;32.85;15.10
31595;BME280;18200;48.726;8.892;2023-03-18T11:56:45;96353.59;;;33.71;14.47
31595;BME280;18200;48.726;8.892;2023-03-18T12:00:34;96345.03;;;34.23;15.42
31595;BME280;18200;48.726;8.892;2023-03-18T12:17:33;96332.28;;;31.96;15.13
31595;BME280;18200;48.726;8.892;2023-03-18T12:21:47;96331.50;;;31.90;15.05
31595;BME280;18200;48.726;8.892;2023-03-18T12:26:02;96337.88;;;28.69;17.27
31595;BME280;18200;48.726;8.892;2023-03-18T12:34:46;96310.63;;;34.15;13.65
31595;BME280;18200;48.726;8.892;2023-03-18T12:43:27;96313.56;;;32.02;15.29
31595;BME280;18200;48.726;8.892;2023-03-18T12:47:35;96324.88;;;31.26;15.67
31595;BME280;18200;48.726;8.892;2023-03-18T12:52:04;96298.31;;;32.99;14.28
31595;BME280;18200;48.726;8.892;2023-03-18T12:56:09;96317.16;;;29.87;16.10
31595;BME280;18200;48.726;8.892;2023-03-18T13:00:26;96317.53;;;29.43;16.83
31595;BME280;18200;48.726;8.892;2023-03-18T13:04:30;96308.78;;;30.13;15.12
31595;BME280;18200;48.726;8.892;2023-03-18T13:08:45;96301.06;;;30.87;14.96
31595;BME280;18200;48.726;8.892;2023-03-18T13:12:58;96291.25;;;32.30;13.89
31595;BME280;18200;48.726;8.892;2023-03-18T13:17:03;96298.66;;;32.79;14.09
31595;BME280;18200;48.726;8.892;2023-03-18T13:21:04;96298.03;;;32.51;14.66
31595;BME280;18200;48.726;8.892;2023-03-18T13:25:51;96295.72;;;33.12;13.93
31595;BME280;18200;48.726;8.892;2023-03-18T13:42:49;96301.63;;;33.38;13.07
31595;BME280;18200;48.726;8.892;2023-03-18T13:46:58;96293.47;;;32.48;14.38
31595;BME280;18200;48.726;8.892;2023-03-18T13:51:17;96308.25;;;31.54;14.64
31595;BME280;18200;48.726;8.892;2023-03-18T13:55:41;96294.75;;;32.41;13.92
31595;BME280;18200;48.726;8.892;2023-03-18T13:59:47;96276.34;;;32.90;13.99
31595;BME280;18200;48.726;8.892;2023-03-18T14:07:48;96286.97;;;30.96;14.90
31595;BME280;18200;48.726;8.892;2023-03-18T14:11:51;96285.47;;;30.30;15.35
31595;BME280;18200;48.726;8.892;2023-03-18T14:15:55;96283.19;;;30.99;15.08
31595;BME280;18200;48.726;8.892;2023-03-18T14:19:56;96288.00;;;30.39;15.12
31595;BME280;18200;48.726;8.892;2023-03-18T14:24:21;96288.78;;;31.93;14.08
31595;BME280;18200;48.726;8.892;2023-03-18T14:28:23;96284.44;;;30.98;18.45
31595;BME280;18200;48.726;8.892;2023-03-18T14:40:45;96271.16;;;31.68;18.82
31595;BME280;18200;48.726;8.892;2023-03-18T14:44:49;96272.66;;;29.96;21.14
31595;BME280;18200;48.726;8.892;2023-03-18T14:48:52;96268.59;;;30.39;20.75
31595;BME280;18200;48.726;8.892;2023-03-18T14:57:21;96261.59;;;29.08;22.20
31595;BME280;18200;48.726;8.892;2023-03-18T15:01:36;96265.41;;;29.36;22.23
31595;BME280;18200;48.726;8.892;2023-03-18T15:05:39;96277.34;;;29.79;21.61
31595;BME280;18200;48.726;8.892;2023-03-18T15:09:41;96261.72;;;28.93;22.79
31595;BME280;18200;48.726;8.892;2023-03-18T15:13:43;96265.41;;;29.10;22.11
31595;BME280;18200;48.726;8.892;2023-03-18T15:17:46;96266.66;;;29.72;21.75
31595;BME280;18200;48.726;8.892;2023-03-18T15:21:48;96262.75;;;29.53;22.22
31595;BME280;18200;48.726;8.892;2023-03-18T15:25:49;96262.22;;;29.80;22.01
31595;BME280;18200;48.726;8.892;2023-03-18T15:29:51;96259.03;;;29.56;21.98
31595;BME280;18200;48.726;8.892;2023-03-18T15:38:18;96261.56;;;30.38;20.79
31595;BME280;18200;48.726;8.892;2023-03-18T15:42:21;96251.06;;;30.76;20.81
31595;BME280;18200;48.726;8.892;2023-03-18T15:46:24;96255.50;;;29.61;21.95
31595;BME280;18200;48.726;8.892;2023-03-18T15:50:27;96260.53;;;30.30;21.21
31595;BME280;18200;48.726;8.892;2023-03-18T15:54:37;96257.19;;;31.90;19.75
31595;BME280;18200;48.726;8.892;2023-03-18T15:58:38;96269.22;;;30.65;20.92
31595;BME280;18200;48.726;8.892;2023-03-18T16:02:39;96258.53;;;29.94;21.43
31595;BME280;18200;48.726;8.892;2023-03-18T16:06:41;96261.81;;;29.61;21.97
31595;BME280;18200;48.726;8.892;2023-03-18T16:10:41;96263.72;;;29.50;22.35
31595;BME280;18200;48.726;8.892;2023-03-18T16:14:43;96269.78;;;29.17;22.28
31595;BME280;18200;48.726;8.892;2023-03-18T16:18:44;96269.88;;;29.59;22.50
31595;BME280;18200;48.726;8.892;2023-03-18T16:22:44;96271.44;;;27.88;23.93
31595;BME280;18200;48.726;8.892;2023-03-18T16:26:45;96278.03;;;28.66;23.30
31595;BME280;18200;48.726;8.892;2023-03-18T16:30:47;96275.69;;;29.98;22.62
31595;BME280;18200;48.726;8.892;2023-03-18T16:34:47;96290.66;;;30.17;21.85
31595;BME280;18200;48.726;8.892;2023-03-18T16:38:47;96293.41;;;30.59;21.95
31595;BME280;18200;48.726;8.892;2023-03-18T16:42:48;96300.44;;;30.55;21.74
31595;BME280;18200;48.726;8.892;2023-03-18T16:46:54;96297.69;;;29.76;22.47
31595;BME280;18200;48.726;8.892;2023-03-18T16:50:55;96304.13;;;29.10;22.79
31595;BME280;18200;48.726;8.892;2023-03-18T16:54:56;96310.47;;;27.96;24.43
31595;BME280;18200;48.726;8.892;2023-03-18T16:58:57;96313.94;;;29.11;22.70
31595;BME280;18200;48.726;8.892;2023-03-18T17:02:59;96321.56;;;29.42;22.51
31595;BME280;18200;48.726;8.892;2023-03-18T17:07:02;96317.72;;;29.97;22.37
31595;BME280;18200;48.726;8.892;2023-03-18T17:11:03;96330.34;;;29.98;22.33
31595;BME280;18200;48.726;8.892;2023-03-18T17:15:05;96336.16;;;30.36;22.10
31595;BME280;18200;48.726;8.892;2023-03-18T17:19:11;96332.50;;;29.26;23.51
31595;BME280;18200;48.726;8.892;2023-03-18T17:23:18;96345.84;;;29.84;22.84
31595;BME280;18200;48.726;8.892;2023-03-18T17:27:22;96339.19;;;30.38;22.18
31595;BME280;18200;48.726;8.892;2023-03-18T17:31:24;96350.94;;;29.91;22.73
31595;BME280;18200;48.726;8.892;2023-03-18T17:35:25;96350.69;;;29.89;22.27
31595;BME280;18200;48.726;8.892;2023-03-18T17:39:25;96345.56;;;29.76;22.20
31595;BME280;18200;48.726;8.892;2023-03-18T17:47:28;96342.38;;;29.32;22.55
31595;BME280;18200;48.726;8.892;2023-03-18T17:51:28;96350.44;;;29.36;22.58
31595;BME280;18200;48.726;8.892;2023-03-18T17:55:29;96348.09;;;29.29;22.21
31595;BME280;18200;48.726;8.892;2023-03-18T17:59:29;96351.09;;;29.05;23.89
31595;BME280;18200;48.726;8.892;2023-03-18T18:03:31;96356.31;;;28.97;23.37
31595;BME280;18200;48.726;8.892;2023-03-18T18:07:32;96360.00;;;29.35;23.21
31595;BME280;18200;48.726;8.892;2023-03-18T18:11:37;96355.44;;;29.32;23.53
31595;BME280;18200;48.726;8.892;2023-03-18T18:15:38;96355.09;;;29.24;23.61
31595;BME280;18200;48.726;8.892;2023-03-18T18:19:40;96356.88;;;29.22;23.19
31595;BME280;18200;48.726;8.892;2023-03-18T18:23:41;96364.16;;;28.79;24.21
31595;BME280;18200;48.726;8.892;2023-03-18T18:27:44;96363.25;;;28.67;24.38
31595;BME280;18200;48.726;8.892;2023-03-18T18:31:45;96358.06;;;28.20;24.83
31595;BME280;18200;48.726;8.892;2023-03-18T18:35:46;96364.59;;;27.29;26.56
31595;BME280;18200;48.726;8.892;2023-03-18T18:39:47;96366.88;;;28.04;26.23
31595;BME280;18200;48.726;8.892;2023-03-18T18:43:47;96372.19;;;28.07;25.80
31595;BME280;18200;48.726;8.892;2023-03-18T18:47:48;96373.91;;;28.05;26.23
31595;BME280;18200;48.726;8.892;2023-03-18T18:51:50;96371.34;;;28.36;25.01
31595;BME280;18200;48.726;8.892;2023-03-18T18:55:54;96370.31;;;27.99;25.91
31595;BME280;18200;48.726;8.892;2023-03-18T18:59:55;96368.41;;;27.76;25.94
31595;BME280;18200;48.726;8.892;2023-03-18T19:03:56;96373.38;;;27.42;26.10
31595;BME280;18200;48.726;8.892;2023-03-18T19:07:56;96368.53;;;26.99;27.28
31595;BME280;18200;48.726;8.892;2023-03-18T19:11:57;96375.34;;;25.76;28.83
31595;BME280;18200;48.726;8.892;2023-03-18T19:16:09;96373.47;;;26.48;28.42
31595;BME280;18200;48.726;8.892;2023-03-18T19:20:39;96374.50;;;27.36;26.95
31595;BME280;18200;48.726;8.892;2023-03-18T19:24:40;96372.38;;;27.16;26.49
31595;BME280;18200;48.726;8.892;2023-03-18T19:28:43;96382.78;;;26.50;27.71
31595;BME280;18200;48.726;8.892;2023-03-18T19:32:47;96390.47;;;26.70;28.09
31595;BME280;18200;48.726;8.892;2023-03-18T19:36:49;96391.84;;;26.74;27.33
31595;BME280;18200;48.726;8.892;2023-03-18T19:40:52;96395.78;;;27.21;27.34
31595;BME280;18200;48.726;8.892;2023-03-18T19:44:56;96397.97;;;26.46;28.09
31595;BME280;18200;48.726;8.892;2023-03-18T19:48:57;96400.41;;;26.76;27.63
31595;BME280;18200;48.726;8.892;2023-03-18T19:52:57;96398.41;;;26.77;27.27
31595;BME280;18200;48.726;8.892;2023-03-18T19:57:04;96396.25;;;26.81;27.85
31595;BME280;18200;48.726;8.892;2023-03-18T20:01:08;96400.59;;;26.73;27.39
31595;BME280;18200;48.726;8.892;2023-03-18T20:05:22;96402.28;;;25.54;28.83
31595;BME280;18200;48.726;8.892;2023-03-18T20:09:23;96406.88;;;25.39;30.02
31595;BME280;18200;48.726;8.892;2023-03-18T20:13:24;96415.28;;;26.13;28.72
31595;BME280;18200;48.726;8.892;2023-03-18T20:21:30;96418.03;;;25.35;29.37
31595;BME280;18200;48.726;8.892;2023-03-18T20:25:36;96428.50;;;24.55;30.43
31595;BME280;18200;48.726;8.892;2023-03-18T20:29:39;96433.94;;;25.13;29.96
31595;BME280;18200;48.726;8.892;2023-03-18T20:33:39;96424.13;;;25.58;29.28
31595;BME280;18200;48.726;8.892;2023-03-18T20:37:40;96427.03;;;25.63;28.93
31595;BME280;18200;48.726;8.892;2023-03-18T20:41:40;96431.03;;;24.81;29.88
31595;BME280;18200;48.726;8.892;2023-03-18T20:45:41;96425.34;;;25.38;28.98
31595;BME280;18200;48.726;8.892;2023-03-18T20:49:41;96428.88;;;24.85;29.89
31595;BME280;18200;48.726;8.892;2023-03-18T20:53:43;96431.94;;;25.41;29.49
31595;BME280;18200;48.726;8.892;2023-03-18T20:57:44;96429.38;;;25.10;29.79
31595;BME280;18200;48.726;8.892;2023-03-18T21:01:45;96436.97;;;24.21;30.71
31595;BME280;18200;48.726;8.892;2023-03-18T21:05:46;96441.34;;;24.67;30.35
31595;BME280;18200;48.726;8.892;2023-03-18T21:09:47;96432.41;;;25.12;29.13
31595;BME280;18200;48.726;8.892;2023-03-18T21:13:48;96436.38;;;25.29;29.39
31595;BME280;18200;48.726;8.892;2023-03-18T21:17:48;96429.22;;;25.32;28.82
31595;BME280;18200;48.726;8.892;2023-03-18T21:21:49;96431.97;;;24.96;30.07
31595;BME280;18200;48.726;8.892;2023-03-18T21:25:50;96430.13;;;25.02;29.77
31595;BME280;18200;48.726;8.892;2023-03-18T21:29:51;96438.81;;;25.00;29.53
31595;BME280;18200;48.726;8.892;2023-03-18T21:33:53;96436.81;;;25.37;29.00
31595;BME280;18200;48.726;8.892;2023-03-18T21:37:54;96435.31;;;25.09;29.75
31595;BME280;18200;48.726;8.892;2023-03-18T21:41:55;96420.88;;;24.50;30.23
31595;BME280;18200;48.726;8.892;2023-03-18T21:45:56;96434.72;;;23.11;32.21
31595;BME280;18200;48.726;8.892;2023-03-18T21:49:56;96431.16;;;23.67;30.95
31595;BME280;18200;48.726;8.892;2023-03-18T21:53:57;96427.97;;;23.99;30.87
31595;BME280;18200;48.726;8.892;2023-03-18T21:57:57;96429.63;;;24.18;30.23
31595;BME280;18200;48.726;8.892;2023-03-18T22:01:57;96438.13;;;23.59;30.71
31595;BME280;18200;48.726;8.892;2023-03-18T22:05:58;96428.44;;;23.98;29.79
31595;BME280;18200;48.726;8.892;2023-03-18T22:09:58;96431.59;;;24.18;29.71
31595;BME280;18200;48.726;8.892;2023-03-18T22:14:00;96438.78;;;24.24;30.30
31595;BME280;18200;48.726;8.892;2023-03-18T22:18:00;96446.50;;;23.86;30.68
31595;BME280;18200;48.726;8.892;2023-03-18T22:22:01;96445.66;;;23.46;31.34
31595;BME280;18200;48.726;8.892;2023-03-18T22:26:01;96445.06;;;23.72;30.58
31595;BME280;18200;48.726;8.892;2023-03-18T22:30:01;96441.78;;;24.17;29.91
31595;BME280;18200;48.726;8.892;2023-03-18T22:34:02;96446.75;;;23.70;30.64
31595;BME280;18200;48.726;8.892;2023-03-18T22:38:04;96447.72;;;23.20;31.12
31595;BME280;18200;48.726;8.892;2023-03-18T22:42:08;96444.06;;;23.57;30.50
31595;BME280;18200;48.726;8.892;2023-03-18T22:46:10;96450.31;;;23.58;30.46
31595;BME280;18200;48.726;8.892;2023-03-18T22:50:10;96460.84;;;23.03;31.81
31595;BME280;18200;48.726;8.892;2023-03-18T22:54:16;96465.88;;;23.39;30.80
31595;BME280;18200;48.726;8.892;2023-03-18T22:58:24;96457.50;;;23.64;30.24
31595;BME280;18200;48.726;8.892;2023-03-18T23:02:26;96473.78;;;23.80;30.73